Time;durP1;ratioP1;P1;durP2;ratioP2;P2;SDS_P1;SDS_P2;PMS_P1;PMS_P2;Temp;Humidity;BMP_temperature;BMP_pressure;BME280_temperature;BME280_humidity;BME280_pressure;Samples;Min_cycle;Max_cycle;Signal;HPM_P1;HPM_P2
2023/09/18 00:01:44;;;;;;;4.82;4.10;;;21.70;77.10;;;;;;10455797;28;20106;-59
2023/09/18 00:06:45;;;;;;;5.20;4.60;;;21.60;77.10;;;;;;10477717;28;20036;-59
2023/09/18 00:11:45;;;;;;;5.13;4.35;;;21.60;77.00;;;;;;10496683;28;20031;-59
2023/09/18 00:16:46;;;;;;;4.72;4.30;;;21.60;77.00;;;;;;10494567;28;20047;-59
2023/09/18 00:21:47;;;;;;;7.80;4.82;;;21.70;77.00;;;;;;10492708;28;20063;-59
2023/09/18 00:26:48;;;;;;;5.55;4.70;;;21.60;77.00;;;;;;10454432;28;20029;-59
2023/09/18 00:31:49;;;;;;;5.28;3.70;;;21.60;76.90;;;;;;10475665;28;20033;-59
2023/09/18 00:36:50;;;;;;;4.90;4.38;;;21.60;76.90;;;;;;10489929;28;20521;-59
2023/09/18 00:41:53;;;;;;;5.13;4.07;;;21.60;76.90;;;;;;10455239;28;20032;-59
2023/09/18 00:46:55;;;;;;;5.20;4.70;;;21.60;76.90;;;;;;10453453;28;20029;-59
2023/09/18 00:51:56;;;;;;;6.55;5.13;;;21.60;76.90;;;;;;10453582;28;20017;-59
2023/09/18 00:56:57;;;;;;;5.30;4.43;;;21.60;76.90;;;;;;10453234;28;20064;-59
2023/09/18 01:02:00;;;;;;;8.40;3.83;;;21.60;76.80;;;;;;10452645;28;20083;-59
2023/09/18 01:07:04;;;;;;;4.72;4.20;;;21.60;76.90;;;;;;10461079;28;20033;-59
2023/09/18 01:12:23;;;;;;;4.65;3.90;;;21.60;77.40;;;;;;10492805;28;20375;-57
2023/09/18 01:17:25;;;;;;;4.85;3.72;;;21.60;76.80;;;;;;10493681;28;20045;-58
2023/09/18 01:22:30;;;;;;;5.65;4.07;;;21.60;77.20;;;;;;10452691;28;20519;-59
2023/09/18 01:27:31;;;;;;;4.43;3.72;;;21.60;77.60;;;;;;10451890;28;20067;-58
2023/09/18 01:32:34;;;;;;;4.72;3.90;;;21.70;78.80;;;;;;10472892;28;20025;-59
2023/09/18 01:37:37;;;;;;;5.22;4.28;;;21.70;78.80;;;;;;10474138;28;20028;-58
2023/09/18 01:42:39;;;;;;;5.05;4.50;;;21.60;78.80;;;;;;10493444;28;20036;-59
2023/09/18 01:47:40;;;;;;;5.32;3.90;;;21.70;78.80;;;;;;10457539;28;20447;-59
2023/09/18 01:52:40;;;;;;;4.75;4.15;;;21.70;78.80;;;;;;10451580;28;20035;-59
2023/09/18 01:57:42;;;;;;;5.47;4.47;;;21.70;78.90;;;;;;10451164;28;20086;-59
2023/09/18 02:02:43;;;;;;;5.60;4.03;;;21.70;79.30;;;;;;10451489;28;20396;-58
2023/09/18 02:07:43;;;;;;;7.47;5.03;;;21.70;78.60;;;;;;10450140;28;20036;-59
2023/09/18 02:12:44;;;;;;;4.63;4.22;;;21.70;78.60;;;;;;10449663;28;20021;-59
2023/09/18 02:17:45;;;;;;;6.10;4.57;;;21.70;78.60;;;;;;10462147;28;20404;-59
2023/09/18 02:22:46;;;;;;;4.57;4.00;;;21.70;78.70;;;;;;10449075;28;20038;-59
2023/09/18 02:27:49;;;;;;;5.40;3.70;;;21.60;78.60;;;;;;10453099;28;20041;-59
2023/09/18 02:32:50;;;;;;;5.78;4.30;;;21.70;78.60;;;;;;10470840;28;20032;-59
2023/09/18 02:37:52;;;;;;;4.95;4.45;;;21.60;78.40;;;;;;10449517;28;20033;-59
2023/09/18 02:42:52;;;;;;;6.47;4.15;;;21.60;78.40;;;;;;10449484;28;20040;-59
2023/09/18 02:47:53;;;;;;;5.05;3.90;;;21.60;78.30;;;;;;10449782;28;20034;-59
2023/09/18 02:52:54;;;;;;;4.70;4.13;;;21.60;78.30;;;;;;10454388;28;20036;-59
2023/09/18 02:57:55;;;;;;;5.40;4.57;;;21.60;78.20;;;;;;10449163;28;20032;-59
2023/09/18 03:02:55;;;;;;;4.85;4.35;;;21.60;78.20;;;;;;10448117;28;20036;-59
2023/09/18 03:07:56;;;;;;;5.72;5.22;;;21.60;78.20;;;;;;10449037;28;20025;-59
2023/09/18 03:12:57;;;;;;;4.75;4.35;;;21.60;78.20;;;;;;10449150;28;20029;-58
2023/09/18 03:18:00;;;;;;;4.75;4.07;;;21.60;78.10;;;;;;10462479;28;20472;-59
2023/09/18 03:23:02;;;;;;;5.40;4.43;;;21.60;78.10;;;;;;10449505;28;20029;-59
2023/09/18 03:28:03;;;;;;;5.22;4.00;;;21.60;78.10;;;;;;10483673;28;20044;-59
2023/09/18 03:33:04;;;;;;;5.63;4.22;;;21.60;78.00;;;;;;10475840;28;20464;-58
2023/09/18 03:38:05;;;;;;;5.57;4.72;;;21.60;78.00;;;;;;10461880;28;20044;-59
2023/09/18 03:43:05;;;;;;;5.18;4.57;;;21.60;78.20;;;;;;10471606;28;20032;-59
2023/09/18 03:48:06;;;;;;;5.95;4.10;;;21.60;78.10;;;;;;10470032;28;20040;-58
2023/09/18 03:53:07;;;;;;;5.03;4.30;;;21.70;77.90;;;;;;10469372;28;20571;-58
2023/09/18 03:58:08;;;;;;;5.88;4.43;;;21.70;78.00;;;;;;10464591;28;20021;-58
2023/09/18 04:03:09;;;;;;;5.53;4.18;;;21.70;78.00;;;;;;10467238;28;20036;-56
2023/09/18 04:08:10;;;;;;;8.98;4.88;;;21.80;77.70;;;;;;10493485;28;20488;-57
2023/09/18 04:13:11;;;;;;;5.55;4.95;;;21.70;77.80;;;;;;10494832;28;20035;-57
2023/09/18 04:18:12;;;;;;;4.50;4.10;;;21.70;77.80;;;;;;10494052;28;20052;-57
2023/09/18 04:23:24;;;;;;;6.38;4.57;;;21.70;77.90;;;;;;10478207;28;20043;-57
2023/09/18 04:28:24;;;;;;;6.80;4.78;;;21.60;77.80;;;;;;10462919;28;20112;-56
2023/09/18 04:33:25;;;;;;;5.55;4.40;;;21.60;77.90;;;;;;10460878;28;20521;-56
2023/09/18 04:38:26;;;;;;;5.88;4.63;;;21.60;77.90;;;;;;10468522;28;20032;-56
2023/09/18 04:43:29;;;;;;;5.25;4.57;;;21.60;77.90;;;;;;10453081;28;20029;-58
2023/09/18 04:48:30;;;;;;;5.22;4.30;;;21.60;77.90;;;;;;10451055;28;20361;-57
2023/09/18 04:53:32;;;;;;;5.13;4.45;;;21.60;77.80;;;;;;10451507;28;20032;-57
2023/09/18 04:58:33;;;;;;;5.22;4.25;;;21.60;77.80;;;;;;10451028;28;20028;-57
2023/09/18 05:03:35;;;;;;;5.20;4.43;;;21.60;77.90;;;;;;10450811;28;20503;-56
2023/09/18 05:08:35;;;;;;;9.50;4.80;;;21.60;78.10;;;;;;10450308;28;20029;-54
2023/09/18 05:13:36;;;;;;;6.68;4.82;;;21.70;78.40;;;;;;10477388;28;20036;-56
2023/09/18 05:18:37;;;;;;;9.52;4.80;;;21.80;78.30;;;;;;10489885;28;20087;-55
2023/09/18 05:23:38;;;;;;;5.53;4.32;;;21.80;78.40;;;;;;10472209;28;20027;-56
2023/09/18 05:28:39;;;;;;;7.78;4.55;;;21.80;78.30;;;;;;10462001;28;20534;-56
2023/09/18 05:33:40;;;;;;;10.35;5.32;;;21.90;77.90;;;;;;10456261;28;20514;-57
2023/09/18 05:38:40;;;;;;;9.20;4.95;;;21.90;77.60;;;;;;10451179;28;20029;-55
2023/09/18 05:43:41;;;;;;;7.40;4.90;;;21.90;78.10;;;;;;10478372;28;20406;-56
2023/09/18 05:48:42;;;;;;;12.50;5.85;;;22.00;77.70;;;;;;10491984;28;20251;-57
2023/09/18 05:53:42;;;;;;;12.23;5.75;;;22.00;77.70;;;;;;10467882;28;20533;-57
2023/09/18 05:58:44;;;;;;;13.27;5.18;;;21.90;77.80;;;;;;10459425;28;20110;-57
2023/09/18 06:03:45;;;;;;;16.52;5.55;;;21.90;77.90;;;;;;10454564;28;20032;-56
2023/09/18 06:08:45;;;;;;;12.52;5.20;;;21.90;78.10;;;;;;10456596;28;20460;-58
2023/09/18 06:13:46;;;;;;;17.80;6.45;;;22.00;77.90;;;;;;10486528;28;20564;-57
2023/09/18 06:18:47;;;;;;;10.23;5.03;;;21.90;78.00;;;;;;10486399;28;20052;-57
2023/09/18 06:23:47;;;;;;;7.57;4.90;;;21.80;78.00;;;;;;10469946;28;20033;-57
2023/09/18 06:28:48;;;;;;;8.07;5.28;;;21.70;78.20;;;;;;10452104;28;20534;-57
2023/09/18 06:33:49;;;;;;;10.70;5.15;;;21.70;78.30;;;;;;10462592;28;20024;-56
2023/09/18 06:38:50;;;;;;;10.60;5.70;;;21.70;78.30;;;;;;10448816;28;20025;-57
2023/09/18 06:43:50;;;;;;;7.97;3.92;;;21.70;78.40;;;;;;10484144;28;20532;-58
2023/09/18 06:48:52;;;;;;;11.02;5.15;;;21.70;78.30;;;;;;10476772;28;20041;-54
2023/09/18 06:53:53;;;;;;;11.07;6.18;;;21.60;78.20;;;;;;10448180;28;20387;-55
2023/09/18 06:58:55;;;;;;;8.93;5.72;;;21.60;78.30;;;;;;10450935;28;20040;-56
2023/09/18 07:03:56;;;;;;;7.88;4.90;;;21.70;78.40;;;;;;10470429;28;20027;-56
2023/09/18 07:08:56;;;;;;;9.68;6.40;;;21.70;78.40;;;;;;10473085;28;20036;-57
2023/09/18 07:13:57;;;;;;;8.85;5.43;;;21.70;78.60;;;;;;10497304;28;20032;-56
2023/09/18 07:18:58;;;;;;;7.10;4.65;;;21.70;78.60;;;;;;10497867;28;20056;-56
2023/09/18 07:23:59;;;;;;;10.90;5.00;;;21.70;78.80;;;;;;10489952;28;20029;-57
2023/09/18 07:28:59;;;;;;;7.63;5.03;;;21.70;78.60;;;;;;10480723;28;20029;-54
2023/09/18 07:34:01;;;;;;;10.60;6.13;;;21.70;78.60;;;;;;10455425;28;20025;-55
2023/09/18 07:39:04;;;;;;;10.52;5.40;;;21.70;78.50;;;;;;10476177;28;20032;-55
2023/09/18 07:44:05;;;;;;;7.65;4.97;;;21.70;78.50;;;;;;10496596;28;20036;-56
2023/09/18 07:49:06;;;;;;;6.82;5.05;;;21.70;78.50;;;;;;10463102;28;20029;-55
2023/09/18 07:54:10;;;;;;;7.72;5.22;;;21.60;78.60;;;;;;10454609;28;20044;-56
2023/09/18 07:59:11;;;;;;;7.15;4.55;;;21.70;78.60;;;;;;10454302;28;20543;-57
2023/09/18 08:04:11;;;;;;;6.18;4.60;;;21.60;78.60;;;;;;10455160;28;20047;-55
2023/09/18 08:09:14;;;;;;;7.05;4.28;;;21.60;78.80;;;;;;10454322;28;20029;-56
2023/09/18 08:14:14;;;;;;;10.00;5.45;;;21.60;78.90;;;;;;10455038;28;20020;-57
2023/09/18 08:19:19;;;;;;;7.55;4.70;;;21.70;78.90;;;;;;10462625;28;20049;-56
2023/09/18 08:24:21;;;;;;;6.85;5.00;;;21.80;79.00;;;;;;10458271;28;20028;-57
2023/09/18 08:29:22;;;;;;;12.35;4.68;;;21.80;78.90;;;;;;10466044;28;20124;-57
2023/09/18 08:34:23;;;;;;;7.32;3.95;;;21.80;78.50;;;;;;10453024;28;20599;-56
2023/09/18 08:39:24;;;;;;;4.97;3.85;;;21.80;78.70;;;;;;10453697;28;20028;-57
2023/09/18 08:44:27;;;;;;;8.15;4.20;;;21.80;78.70;;;;;;10451717;28;20475;-56
2023/09/18 08:49:29;;;;;;;12.98;3.97;;;21.90;78.70;;;;;;10457882;28;20578;-55
2023/09/18 08:54:30;;;;;;;6.40;3.85;;;21.90;78.60;;;;;;10464608;28;20423;-56
2023/09/18 08:59:31;;;;;;;8.65;4.72;;;21.90;78.70;;;;;;10452067;28;20041;-56
2023/09/18 09:04:32;;;;;;;6.05;3.60;;;21.90;79.50;;;;;;10463380;28;20492;-56
2023/09/18 09:09:33;;;;;;;9.98;3.85;;;22.00;79.40;;;;;;10462023;28;20036;-55
2023/09/18 09:14:34;;;;;;;6.63;4.13;;;22.00;79.50;;;;;;10474372;28;20022;-55
2023/09/18 09:19:42;;;;;;;6.63;4.13;;;22.00;79.20;;;;;;10490801;28;20492;-55
2023/09/18 09:24:44;;;;;;;4.97;3.10;;;22.00;79.00;;;;;;10463935;28;20087;-55
2023/09/18 09:30:01;;;;;;;12.73;4.80;;;22.00;79.00;;;;;;10473972;28;20041;-56
2023/09/18 09:35:05;;;;;;;7.88;3.78;;;22.00;78.90;;;;;;10466130;28;20387;-55
2023/09/18 09:40:09;;;;;;;12.35;4.00;;;22.10;78.70;;;;;;10469893;28;20032;-57
2023/09/18 09:45:18;;;;;;;5.47;2.90;;;22.10;78.50;;;;;;10466879;28;20039;-56
2023/09/18 09:50:19;;;;;;;6.60;3.20;;;22.00;78.40;;;;;;10470644;28;20398;-57
2023/09/18 09:55:30;;;;;;;6.22;3.10;;;22.00;78.30;;;;;;10467129;28;20028;-56
2023/09/18 10:00:40;;;;;;;7.85;2.75;;;22.10;78.40;;;;;;10464722;28;20456;-56
2023/09/18 10:05:46;;;;;;;7.78;3.05;;;22.10;78.50;;;;;;10464876;28;20610;-56
2023/09/18 10:10:49;;;;;;;4.82;3.08;;;22.10;78.50;;;;;;10467020;28;20037;-57
2023/09/18 10:15:52;;;;;;;6.45;2.58;;;22.10;78.50;;;;;;10461215;28;20045;-57
2023/09/18 10:21:31;;;;;;;7.85;2.72;;;22.10;79.10;;;;;;10477255;28;20045;-55
2023/09/18 10:26:38;;;;;;;3.92;2.70;;;22.00;78.30;;;;;;10468687;28;20119;-56
2023/09/18 10:31:41;;;;;;;5.43;2.60;;;22.00;78.60;;;;;;10466331;28;20039;-56
2023/09/18 10:36:44;;;;;;;7.93;3.05;;;22.00;78.20;;;;;;10472293;28;20012;-55
2023/09/18 10:41:46;;;;;;;8.23;3.53;;;22.10;78.80;;;;;;10472626;28;20523;-56
2023/09/18 10:46:49;;;;;;;6.95;3.50;;;22.00;79.10;;;;;;10467334;28;20037;-56
2023/09/18 10:51:55;;;;;;;3.53;2.55;;;22.00;79.10;;;;;;10465190;28;20070;-55
2023/09/18 10:56:58;;;;;;;6.38;3.03;;;22.00;79.10;;;;;;10455411;28;20040;-56
2023/09/18 11:02:05;;;;;;;5.95;3.35;;;22.10;79.20;;;;;;10448465;28;20024;-56
2023/09/18 11:07:06;;;;;;;5.90;2.28;;;22.10;78.70;;;;;;10447771;28;20567;-57
2023/09/18 11:12:08;;;;;;;6.47;3.17;;;22.10;78.80;;;;;;10457096;28;20033;-55
2023/09/18 11:17:36;;;;;;;4.68;3.15;;;22.10;78.90;;;;;;10480272;28;20452;-56
2023/09/18 11:22:39;;;;;;;5.80;2.67;;;22.20;78.90;;;;;;10483705;28;20033;-56
2023/09/18 11:28:01;;;;;;;8.65;2.88;;;22.10;78.50;;;;;;10453093;28;20037;-57
2023/09/18 11:33:05;;;;;;;6.05;2.55;;;22.10;78.50;;;;;;10481417;28;20127;-56
2023/09/18 11:38:10;;;;;;;7.60;2.53;;;22.10;78.60;;;;;;10488127;28;20081;-56
2023/09/18 11:43:25;;;;;;;4.32;2.47;;;22.10;78.60;;;;;;10448408;28;20120;-56
2023/09/18 11:48:29;;;;;;;8.10;3.30;;;22.20;78.70;;;;;;10453058;28;20116;-56
2023/09/18 11:53:35;;;;;;;5.82;3.63;;;22.20;78.50;;;;;;10456737;28;20484;-56
2023/09/18 11:58:51;;;;;;;4.90;2.55;;;22.30;77.90;;;;;;10488989;28;20033;-57
2023/09/18 12:04:00;;;;;;;5.18;3.17;;;22.30;78.10;;;;;;10454745;28;20025;-56
2023/09/18 12:09:03;;;;;;;5.68;3.10;;;22.30;78.20;;;;;;10484496;28;20036;-55
2023/09/18 12:14:05;;;;;;;7.60;3.13;;;22.30;78.10;;;;;;10457411;28;20438;-56
2023/09/18 12:19:08;;;;;;;5.68;3.42;;;22.20;78.00;;;;;;10466296;28;20052;-56
2023/09/18 12:24:23;;;;;;;9.15;3.15;;;22.20;78.00;;;;;;10458710;28;20120;-56
2023/09/18 12:29:24;;;;;;;6.45;2.60;;;22.40;78.20;;;;;;10484145;28;20044;-56
2023/09/18 12:34:25;;;;;;;8.23;2.92;;;22.40;77.60;;;;;;10458122;28;20033;-57
2023/09/18 12:39:32;;;;;;;8.57;3.38;;;22.40;77.30;;;;;;10452511;28;20615;-58
2023/09/18 12:44:34;;;;;;;6.95;3.65;;;22.50;77.40;;;;;;10453881;28;20025;-56
2023/09/18 12:49:34;;;;;;;7.03;3.80;;;22.50;76.70;;;;;;10466903;28;20115;-55
2023/09/18 12:54:45;;;;;;;8.50;4.50;;;22.50;77.10;;;;;;10487096;28;20024;-56
2023/09/18 12:59:49;;;;;;;12.25;3.85;;;22.50;77.40;;;;;;10464172;28;20475;-57
2023/09/18 13:04:55;;;;;;;12.10;3.75;;;22.70;77.30;;;;;;10471891;28;20043;-57
2023/09/18 13:10:10;;;;;;;20.90;4.55;;;22.70;76.90;;;;;;10467003;28;20032;-56
2023/09/18 13:15:12;;;;;;;11.20;4.22;;;22.60;76.80;;;;;;10452123;28;20041;-57
2023/09/18 13:20:26;;;;;;;10.95;4.13;;;22.50;76.80;;;;;;10467004;28;20354;-55
2023/09/18 13:25:40;;;;;;;15.13;4.60;;;22.60;77.30;;;;;;10472334;28;20032;-57
2023/09/18 13:30:42;;;;;;;12.90;4.22;;;22.60;77.30;;;;;;10470938;28;20037;-56
2023/09/18 13:35:45;;;;;;;9.90;3.97;;;22.60;77.30;;;;;;10462537;28;20138;-55
2023/09/18 13:40:48;;;;;;;10.70;3.97;;;22.60;77.70;;;;;;10451089;28;20135;-57
2023/09/18 13:45:52;;;;;;;13.05;4.47;;;22.60;77.60;;;;;;10471938;28;20034;-56
2023/09/18 13:50:53;;;;;;;9.07;4.20;;;22.50;76.80;;;;;;10491460;28;20058;-55
2023/09/18 13:55:56;;;;;;;12.15;4.88;;;22.40;77.10;;;;;;10468344;28;20032;-57
2023/09/18 14:00:57;;;;;;;38.75;6.55;;;22.40;78.20;;;;;;10461898;28;20098;-56
2023/09/18 14:05:57;;;;;;;38.25;6.70;;;22.50;77.80;;;;;;10450031;28;20461;-57
2023/09/18 14:10:58;;;;;;;29.25;6.53;;;22.50;77.90;;;;;;10473752;28;20033;-55
2023/09/18 14:15:59;;;;;;;28.45;5.97;;;22.60;77.80;;;;;;10469953;28;20040;-55
2023/09/18 14:21:00;;;;;;;34.20;6.13;;;22.60;77.50;;;;;;10474975;28;20021;-57
2023/09/18 14:26:01;;;;;;;19.67;5.18;;;22.60;77.80;;;;;;10450776;28;20052;-57
2023/09/18 14:31:03;;;;;;;17.00;4.20;;;22.50;76.80;;;;;;10471091;28;20116;-57
2023/09/18 14:36:04;;;;;;;13.30;4.57;;;22.50;76.40;;;;;;10459877;28;20116;-55
2023/09/18 14:41:07;;;;;;;18.67;5.05;;;22.50;76.20;;;;;;10473167;28;20694;-57
2023/09/18 14:46:07;;;;;;;17.45;5.15;;;22.60;76.90;;;;;;10484332;28;20106;-58
2023/09/18 14:51:08;;;;;;;13.70;4.18;;;22.90;76.30;;;;;;10479623;28;20048;-57
2023/09/18 14:56:09;;;;;;;12.40;4.38;;;22.90;76.40;;;;;;10482189;28;20391;-54
2023/09/18 15:01:11;;;;;;;8.65;3.83;;;22.90;76.60;;;;;;10482845;28;20422;-56
2023/09/18 15:06:11;;;;;;;14.13;4.75;;;22.90;76.40;;;;;;10476146;28;20472;-58
2023/09/18 15:11:21;;;;;;;14.75;5.72;;;22.90;76.10;;;;;;10478730;28;20037;-59
2023/09/18 15:16:22;;;;;;;23.83;5.97;;;22.80;76.80;;;;;;10459812;28;20125;-56
2023/09/18 15:21:22;;;;;;;13.02;3.83;;;22.70;76.00;;;;;;10460611;28;20033;-56
2023/09/18 15:26:23;;;;;;;15.88;4.30;;;22.50;75.90;;;;;;10464540;28;20024;-58
2023/09/18 15:31:24;;;;;;;9.27;3.75;;;22.50;76.60;;;;;;10479196;28;20483;-57
2023/09/18 15:36:25;;;;;;;13.00;4.30;;;22.50;76.70;;;;;;10485364;28;20039;-58
2023/09/18 15:41:27;;;;;;;10.00;3.58;;;22.50;77.50;;;;;;10482799;28;20407;-58
2023/09/18 15:46:29;;;;;;;9.60;4.05;;;22.40;76.90;;;;;;10456044;28;20359;-58
2023/09/18 15:51:30;;;;;;;9.27;3.63;;;22.50;76.90;;;;;;10456319;28;20031;-58
2023/09/18 15:56:33;;;;;;;10.70;3.35;;;22.40;77.10;;;;;;10462215;28;20028;-58
2023/09/18 16:01:37;;;;;;;15.43;3.70;;;22.40;77.30;;;;;;10481177;28;20028;-58
2023/09/18 16:06:38;;;;;;;9.20;3.45;;;22.40;77.90;;;;;;10456603;28;20045;-54
2023/09/18 16:11:39;;;;;;;10.10;4.35;;;22.30;77.40;;;;;;10453923;28;20033;-55
2023/09/18 16:16:39;;;;;;;18.98;3.85;;;22.40;77.40;;;;;;10467560;28;20037;-56
2023/09/18 16:21:40;;;;;;;28.65;5.30;;;22.30;78.10;;;;;;10455267;28;20033;-55
2023/09/18 16:26:41;;;;;;;18.40;4.10;;;22.40;78.10;;;;;;10464957;28;20036;-55
2023/09/18 16:31:43;;;;;;;35.67;5.43;;;22.50;78.10;;;;;;10474938;28;20029;-55
2023/09/18 16:36:43;;;;;;;10.77;3.75;;;22.50;78.70;;;;;;10467253;28;20039;-56
2023/09/18 16:41:44;;;;;;;14.52;3.40;;;22.60;78.90;;;;;;10453900;28;20512;-55
2023/09/18 16:46:45;;;;;;;16.85;3.88;;;22.60;78.40;;;;;;10461659;28;20029;-57
2023/09/18 16:51:46;;;;;;;14.68;3.80;;;22.50;78.00;;;;;;10466149;28;20482;-57
2023/09/18 16:56:47;;;;;;;13.23;3.03;;;22.40;78.30;;;;;;10453583;28;20041;-56
2023/09/18 17:01:48;;;;;;;12.32;4.50;;;22.40;78.30;;;;;;10453156;28;20856;-56
2023/09/18 17:06:49;;;;;;;19.35;3.50;;;22.40;78.20;;;;;;10455879;28;20359;-55
2023/09/18 17:11:49;;;;;;;17.15;4.55;;;22.30;77.80;;;;;;10458371;28;20036;-57
2023/09/18 17:16:50;;;;;;;15.98;3.72;;;22.30;77.70;;;;;;10474661;28;20036;-55
2023/09/18 17:21:51;;;;;;;24.63;3.80;;;22.30;77.80;;;;;;10464272;28;20044;-56
2023/09/18 17:26:52;;;;;;;18.35;5.40;;;22.30;77.70;;;;;;10474695;28;20029;-56
2023/09/18 17:31:52;;;;;;;18.60;3.25;;;22.30;77.80;;;;;;10468931;28;20456;-56
2023/09/18 17:36:55;;;;;;;16.00;4.00;;;22.30;77.80;;;;;;10454009;28;20028;-54
2023/09/18 17:41:56;;;;;;;23.75;3.40;;;22.30;77.80;;;;;;10452259;28;20206;-54
2023/09/18 17:46:57;;;;;;;14.73;3.90;;;22.30;77.80;;;;;;10450135;28;20037;-56
2023/09/18 17:51:57;;;;;;;8.27;3.67;;;22.30;77.50;;;;;;10449516;28;20029;-55
2023/09/18 17:56:59;;;;;;;8.52;2.70;;;22.30;77.50;;;;;;10450160;28;20333;-54
2023/09/18 18:02:00;;;;;;;9.50;3.58;;;22.20;77.40;;;;;;10448697;28;20021;-55
2023/09/18 18:07:01;;;;;;;11.38;3.05;;;22.20;78.10;;;;;;10453377;28;20159;-55
2023/09/18 18:12:04;;;;;;;10.05;3.03;;;22.20;78.00;;;;;;10491024;28;20033;-56
2023/09/18 18:17:05;;;;;;;7.25;2.20;;;22.20;77.90;;;;;;10490719;28;20041;-54
2023/09/18 18:22:06;;;;;;;10.00;3.00;;;22.30;77.70;;;;;;10479019;28;20255;-56
2023/09/18 18:27:08;;;;;;;10.18;2.85;;;22.30;77.40;;;;;;10469830;28;20376;-56
2023/09/18 18:32:08;;;;;;;6.03;2.20;;;22.30;77.20;;;;;;10474954;28;20032;-56
2023/09/18 18:37:09;;;;;;;6.50;2.22;;;22.20;77.60;;;;;;10471113;28;20033;-55
2023/09/18 18:42:10;;;;;;;6.68;2.63;;;22.20;77.50;;;;;;10469575;28;20041;-64
2023/09/18 18:47:12;;;;;;;5.00;2.40;;;22.10;77.50;;;;;;10468782;28;20041;-56
2023/09/18 18:52:12;;;;;;;6.28;2.30;;;22.10;77.50;;;;;;10466810;28;20025;-56
2023/09/18 18:57:13;;;;;;;4.32;2.25;;;22.10;77.60;;;;;;10465492;28;20428;-56
2023/09/18 19:02:14;;;;;;;5.78;2.40;;;22.10;77.60;;;;;;10471562;28;20025;-56
2023/09/18 19:07:15;;;;;;;7.63;1.90;;;22.00;77.60;;;;;;10476183;28;20032;-57
2023/09/18 19:12:16;;;;;;;5.13;2.35;;;22.00;77.60;;;;;;10453360;28;20162;-56
2023/09/18 19:17:17;;;;;;;4.85;2.10;;;22.00;77.60;;;;;;10476505;28;20089;-56
2023/09/18 19:22:18;;;;;;;5.03;2.92;;;22.00;78.10;;;;;;10460452;28;20036;-56
2023/09/18 19:27:18;;;;;;;4.65;1.95;;;22.00;77.50;;;;;;10463181;28;20025;-57
2023/09/18 19:32:19;;;;;;;4.93;1.90;;;22.00;77.50;;;;;;10475990;28;20013;-56
2023/09/18 19:37:20;;;;;;;4.60;1.73;;;22.00;77.50;;;;;;10476151;28;20017;-56
2023/09/18 19:42:21;;;;;;;4.30;1.88;;;21.90;77.40;;;;;;10479582;28;20064;-56
2023/09/18 19:47:22;;;;;;;5.95;2.60;;;21.90;77.50;;;;;;10470759;28;20025;-59
2023/09/18 19:52:23;;;;;;;4.88;2.08;;;21.90;77.40;;;;;;10460300;28;20032;-56
2023/09/18 19:57:23;;;;;;;4.25;2.05;;;21.90;77.10;;;;;;10464977;28;20040;-56
2023/09/18 20:02:25;;;;;;;4.22;2.85;;;21.90;77.10;;;;;;10460969;28;20499;-56
2023/09/18 20:07:26;;;;;;;3.88;1.92;;;21.90;77.10;;;;;;10467276;28;20024;-56
2023/09/18 20:12:27;;;;;;;5.43;2.33;;;21.90;77.10;;;;;;10477846;28;20025;-55
2023/09/18 20:17:28;;;;;;;4.07;1.70;;;21.90;77.10;;;;;;10496470;28;20487;-56
2023/09/18 20:22:30;;;;;;;2.78;1.80;;;21.90;77.10;;;;;;10496240;28;20020;-55
2023/09/18 20:27:31;;;;;;;5.45;1.90;;;21.90;77.00;;;;;;10496478;28;20078;-56
2023/09/18 20:32:33;;;;;;;3.38;1.35;;;21.90;77.00;;;;;;10469204;28;20468;-55
2023/09/18 20:37:34;;;;;;;5.13;1.83;;;21.90;77.00;;;;;;10454329;28;20025;-56
2023/09/18 20:42:34;;;;;;;2.85;1.73;;;21.90;76.80;;;;;;10454114;28;20040;-56
2023/09/18 20:47:35;;;;;;;4.20;2.05;;;21.90;76.80;;;;;;10454067;28;20033;-56
2023/09/18 20:52:37;;;;;;;2.90;1.50;;;21.90;76.80;;;;;;10453554;28;20040;-55
2023/09/18 20:57:37;;;;;;;4.35;1.50;;;21.80;76.70;;;;;;10453809;28;20051;-56
2023/09/18 21:02:44;;;;;;;3.00;1.45;;;21.80;76.80;;;;;;10467729;28;20094;-56
2023/09/18 21:07:45;;;;;;;3.38;1.60;;;21.80;76.50;;;;;;10472034;28;20120;-56
2023/09/18 21:12:46;;;;;;;3.42;1.92;;;21.80;76.60;;;;;;10492963;28;20029;-56
2023/09/18 21:17:47;;;;;;;4.18;2.45;;;21.80;76.50;;;;;;10493305;28;20075;-55
2023/09/18 21:22:47;;;;;;;3.38;1.90;;;21.80;76.50;;;;;;10493874;28;20677;-56
2023/09/18 21:27:48;;;;;;;4.05;1.63;;;21.80;76.50;;;;;;10494249;28;20035;-55
2023/09/18 21:32:50;;;;;;;2.72;1.63;;;21.80;76.50;;;;;;10463634;28;20025;-57
2023/09/18 21:37:52;;;;;;;5.57;1.88;;;21.80;76.40;;;;;;10452069;28;20365;-56
2023/09/18 21:42:53;;;;;;;4.53;1.45;;;21.80;76.30;;;;;;10451805;28;20033;-55
2023/09/18 21:47:55;;;;;;;3.50;1.85;;;21.80;76.30;;;;;;10451724;28;20059;-56
2023/09/18 21:52:56;;;;;;;3.50;1.48;;;21.80;76.30;;;;;;10451504;28;20271;-56
2023/09/18 21:57:57;;;;;;;3.72;2.00;;;21.80;76.30;;;;;;10451402;28;20036;-56
2023/09/18 22:02:57;;;;;;;3.83;1.80;;;21.80;76.30;;;;;;10450764;28;20090;-56
2023/09/18 22:07:59;;;;;;;3.42;1.58;;;21.80;76.30;;;;;;10451044;28;20029;-55
2023/09/18 22:13:01;;;;;;;2.78;1.52;;;21.80;76.40;;;;;;10450245;28;20040;-56
2023/09/18 22:18:04;;;;;;;4.10;1.88;;;21.70;76.20;;;;;;10483249;28;20052;-56
2023/09/18 22:23:05;;;;;;;4.53;1.40;;;21.70;76.20;;;;;;10491601;28;20036;-56
2023/09/18 22:28:07;;;;;;;2.67;1.77;;;21.70;76.30;;;;;;10494405;28;20186;-56
2023/09/18 22:33:08;;;;;;;3.20;1.83;;;21.70;76.20;;;;;;10455678;28;20025;-56
2023/09/18 22:38:45;;;;;;;3.72;1.85;;;21.70;76.20;;;;;;10450097;28;20033;-55
2023/09/18 22:44:42;;;;;;;2.95;1.55;;;21.70;76.20;;;;;;10449514;28;20033;-56
2023/09/18 22:50:41;;;;;;;5.20;1.60;;;21.70;75.90;;;;;;10477931;28;20029;-56
2023/09/18 22:55:42;;;;;;;4.50;1.77;;;21.70;75.90;;;;;;10490566;28;20036;-55
2023/09/18 23:00:44;;;;;;;3.60;1.83;;;21.70;76.50;;;;;;10491397;28;20024;-56
2023/09/18 23:05:45;;;;;;;3.08;1.45;;;21.70;76.00;;;;;;10490323;28;20059;-56
2023/09/18 23:10:45;;;;;;;3.35;1.60;;;21.70;76.10;;;;;;10448642;28;20136;-56
2023/09/18 23:15:47;;;;;;;3.20;1.65;;;21.70;76.10;;;;;;10464633;28;20044;-56
2023/09/18 23:20:48;;;;;;;3.78;1.60;;;21.70;76.10;;;;;;10489598;28;20048;-56
2023/09/18 23:25:54;;;;;;;2.58;1.80;;;21.70;76.10;;;;;;10489983;28;20068;-56
2023/09/18 23:30:57;;;;;;;4.00;1.77;;;21.60;76.10;;;;;;10477014;28;20612;-56
2023/09/18 23:35:58;;;;;;;2.22;1.33;;;21.60;76.00;;;;;;10448652;28;20025;-56
2023/09/18 23:41:02;;;;;;;3.15;1.73;;;21.60;76.00;;;;;;10450741;28;20032;-56
2023/09/18 23:46:05;;;;;;;2.72;1.80;;;21.70;76.10;;;;;;10456107;28;20126;-56
2023/09/18 23:51:07;;;;;;;3.53;1.50;;;21.70;76.10;;;;;;10456368;28;20036;-56
2023/09/18 23:56:12;;;;;;;3.05;1.65;;;21.60;76.00;;;;;;10455855;28;20038;-56
